createdAt,value
2023-05-09T00:00:56.155Z,0.00
2023-05-09T00:01:56.229Z,0.00
2023-05-09T00:02:56.248Z,0.00
2023-05-09T00:03:56.263Z,0.00
2023-05-09T00:04:56.269Z,0.00
2023-05-09T00:05:56.296Z,12.05
2023-05-09T00:06:56.328Z,25.00
2023-05-09T00:07:56.365Z,25.00
2023-05-09T00:08:56.399Z,25.46
2023-05-09T00:09:56.451Z,25.00
2023-05-09T00:10:56.613Z,25.00
2023-05-09T00:11:56.541Z,26.68
2023-05-09T00:12:56.617Z,25.00
2023-05-09T00:13:56.605Z,25.00
2023-05-09T00:14:56.643Z,26.40
2023-05-09T00:15:56.716Z,25.65
2023-05-09T00:16:56.735Z,26.06
2023-05-09T00:17:56.826Z,25.00
2023-05-09T00:18:56.821Z,25.45
2023-05-09T00:19:56.863Z,25.96
2023-05-09T00:20:56.905Z,27.46
2023-05-09T00:21:56.951Z,26.58
2023-05-09T00:22:56.987Z,26.28
2023-05-09T00:23:57.022Z,25.96
2023-05-09T00:24:57.065Z,25.00
2023-05-09T00:25:57.116Z,26.30
2023-05-09T00:26:57.289Z,25.15
2023-05-09T00:27:57.212Z,25.00
2023-05-09T00:28:57.244Z,26.40
2023-05-09T00:29:57.299Z,28.01
2023-05-09T00:30:57.339Z,28.61
2023-05-09T00:31:57.429Z,27.29
2023-05-09T00:32:57.465Z,26.57
2023-05-09T00:33:57.488Z,24.20
2023-05-09T00:34:57.564Z,25.71
2023-05-09T00:35:57.616Z,25.00
2023-05-09T00:36:57.637Z,27.17
2023-05-09T00:37:57.686Z,26.93
2023-05-09T00:38:57.750Z,25.53
2023-05-09T00:39:57.817Z,24.86
2023-05-09T00:40:57.837Z,26.35
2023-05-09T00:41:57.881Z,25.00
2023-05-09T00:42:58.037Z,25.00
2023-05-09T00:43:57.963Z,25.65
2023-05-09T00:44:58.015Z,25.05
2023-05-09T00:45:58.095Z,25.81
2023-05-09T00:46:58.118Z,27.50
2023-05-09T00:47:58.222Z,25.55
2023-05-09T00:48:58.215Z,27.16
2023-05-09T00:49:58.350Z,26.89
2023-05-09T00:50:58.299Z,27.98
2023-05-09T00:51:58.348Z,27.89
2023-05-09T00:52:58.408Z,26.89
2023-05-09T00:53:58.440Z,26.39
2023-05-09T00:54:58.481Z,25.31
2023-05-09T00:55:58.535Z,28.14
2023-05-09T00:56:58.584Z,25.00
2023-05-09T00:57:58.640Z,26.74
2023-05-09T00:58:58.812Z,27.22
2023-05-09T00:59:58.742Z,25.48
2023-05-09T01:00:58.801Z,26.69
2023-05-09T01:01:58.822Z,27.65
2023-05-09T01:02:58.928Z,26.05
2023-05-09T01:03:58.915Z,25.54
2023-05-09T01:04:58.970Z,25.00
2023-05-09T01:05:59.014Z,27.52
2023-05-09T01:06:59.053Z,29.34
2023-05-09T01:07:59.101Z,27.16
2023-05-09T01:08:59.155Z,26.83
2023-05-09T01:09:59.195Z,26.91
2023-05-09T01:10:59.253Z,25.56
2023-05-09T01:11:59.314Z,26.08
2023-05-09T01:12:59.397Z,28.74
2023-05-09T01:13:59.400Z,27.62
2023-05-09T01:14:59.572Z,27.81
2023-05-09T01:15:59.539Z,25.01
2023-05-09T01:16:59.562Z,25.39
2023-05-09T01:17:59.660Z,26.41
2023-05-09T01:18:59.656Z,25.66
2023-05-09T01:19:59.707Z,26.08
2023-05-09T01:20:59.744Z,26.78
2023-05-09T01:21:59.775Z,28.13
2023-05-09T01:22:59.827Z,26.75
2023-05-09T01:23:59.872Z,26.06
2023-05-09T01:24:59.921Z,26.82
2023-05-09T01:25:59.962Z,25.46
2023-05-09T01:27:00.023Z,26.31
2023-05-09T01:28:00.102Z,26.77
2023-05-09T01:29:00.128Z,27.40
2023-05-09T01:30:00.210Z,27.94
2023-05-09T01:31:00.346Z,25.92
2023-05-09T01:32:00.253Z,25.98
2023-05-09T01:33:00.354Z,26.38
2023-05-09T01:34:00.349Z,27.15
2023-05-09T01:35:00.393Z,26.54
2023-05-09T01:36:00.446Z,26.50
2023-05-09T01:37:00.494Z,26.24
2023-05-09T01:38:00.557Z,25.24
2023-05-09T01:39:00.600Z,26.48
2023-05-09T01:40:00.648Z,26.19
2023-05-09T01:41:00.702Z,27.49
2023-05-09T01:42:00.771Z,26.65
2023-05-09T01:43:00.802Z,26.60
2023-05-09T01:44:01.032Z,26.50
2023-05-09T01:45:00.898Z,26.49
2023-05-09T01:46:00.942Z,27.33
2023-05-09T01:47:01.300Z,26.57
2023-05-09T01:48:01.072Z,27.02
2023-05-09T01:49:01.101Z,27.17
2023-05-09T01:50:01.152Z,26.86
2023-05-09T01:51:01.204Z,27.04
2023-05-09T01:52:01.253Z,26.45
2023-05-09T01:53:01.307Z,25.35
2023-05-09T01:54:01.358Z,26.53
2023-05-09T01:55:01.414Z,27.32
2023-05-09T01:56:01.462Z,26.31
2023-05-09T01:57:01.496Z,27.17
2023-05-09T01:58:01.545Z,25.87
2023-05-09T01:59:01.588Z,27.71
2023-05-09T02:00:01.642Z,25.55
2023-05-09T02:01:01.713Z,27.84
2023-05-09T02:02:01.776Z,26.78
2023-05-09T02:03:01.928Z,26.21
2023-05-09T02:04:01.811Z,27.21
2023-05-09T02:05:01.863Z,24.45
2023-05-09T02:06:01.915Z,27.39
2023-05-09T02:07:01.971Z,25.57
2023-05-09T02:08:02.024Z,26.36
2023-05-09T02:09:02.052Z,27.11
2023-05-09T02:10:02.102Z,27.65
2023-05-09T02:11:02.159Z,27.54
2023-05-09T02:12:02.197Z,25.00
2023-05-09T02:13:02.273Z,27.00
2023-05-09T02:14:02.284Z,26.87
2023-05-09T02:15:02.328Z,26.81
2023-05-09T02:16:02.389Z,26.18
2023-05-09T02:17:02.507Z,26.44
2023-05-09T02:18:02.498Z,26.30
2023-05-09T02:19:02.650Z,27.51
2023-05-09T02:20:02.577Z,26.12
2023-05-09T02:21:02.621Z,26.56
2023-05-09T02:22:02.665Z,25.87
2023-05-09T02:23:02.714Z,26.49
2023-05-09T02:24:02.770Z,26.69
2023-05-09T02:25:02.812Z,27.50
2023-05-09T02:26:02.863Z,26.76
2023-05-09T02:27:02.938Z,26.16
2023-05-09T02:28:02.969Z,25.00
2023-05-09T02:29:03.024Z,27.01
2023-05-09T02:30:03.074Z,26.61
2023-05-09T02:31:03.127Z,27.49
2023-05-09T02:32:03.209Z,25.77
2023-05-09T02:33:03.241Z,26.10
2023-05-09T02:34:03.272Z,26.37
2023-05-09T02:35:03.462Z,25.71
2023-05-09T02:36:03.377Z,26.27
2023-05-09T02:37:03.429Z,26.35
2023-05-09T02:38:03.473Z,26.63
2023-05-09T02:39:03.538Z,27.39
2023-05-09T02:40:03.584Z,26.81
2023-05-09T02:41:03.638Z,25.15
2023-05-09T02:42:03.695Z,27.57
2023-05-09T02:43:03.739Z,26.38
2023-05-09T02:44:03.817Z,26.13
2023-05-09T02:45:03.846Z,26.99
2023-05-09T02:46:03.929Z,26.66
2023-05-09T02:47:03.934Z,26.37
2023-05-09T02:48:06.275Z,26.04
2023-05-09T02:49:03.988Z,26.29
2023-05-09T02:50:03.999Z,26.54
2023-05-09T02:51:04.122Z,26.23
2023-05-09T02:52:04.015Z,26.40
2023-05-09T02:53:04.844Z,25.81
2023-05-09T02:54:04.052Z,27.79
2023-05-09T02:55:04.110Z,25.74
2023-05-09T02:56:04.055Z,25.72
2023-05-09T02:57:04.088Z,25.75
2023-05-09T02:58:13.261Z,26.45
2023-05-09T02:59:04.081Z,26.85
2023-05-09T03:00:04.086Z,27.66
2023-05-09T03:01:04.138Z,27.48
2023-05-09T03:02:04.108Z,27.46
2023-05-09T03:03:04.180Z,26.71
2023-05-09T03:04:04.151Z,25.93
2023-05-09T03:05:04.146Z,26.96
2023-05-09T03:06:04.158Z,26.14
2023-05-09T03:07:04.289Z,27.77
2023-05-09T03:08:04.182Z,27.59
2023-05-09T03:09:04.201Z,25.60
2023-05-09T03:10:04.258Z,25.94
2023-05-09T03:11:04.226Z,25.54
2023-05-09T03:12:04.247Z,26.11
2023-05-09T03:13:04.326Z,26.59
2023-05-09T03:14:04.262Z,25.28
2023-05-09T03:15:04.283Z,27.29
2023-05-09T03:16:04.329Z,28.62
2023-05-09T03:17:04.318Z,26.45
2023-05-09T03:18:04.410Z,26.84
2023-05-09T03:19:04.360Z,26.70
2023-05-09T03:20:04.623Z,26.04
2023-05-09T03:21:04.339Z,25.74
2023-05-09T03:22:04.344Z,26.10
2023-05-09T03:23:04.482Z,25.81
2023-05-09T03:24:04.388Z,26.17
2023-05-09T03:25:04.494Z,25.78
2023-05-09T03:26:04.400Z,26.78
2023-05-09T03:27:04.421Z,26.03
2023-05-09T03:28:04.406Z,25.35
2023-05-09T03:29:04.422Z,27.09
2023-05-09T03:30:04.440Z,26.80
2023-05-09T03:31:04.460Z,27.11
2023-05-09T03:32:04.464Z,26.81
2023-05-09T03:33:04.525Z,26.27
2023-05-09T03:34:04.483Z,25.10
2023-05-09T03:35:04.504Z,27.86
2023-05-09T03:36:04.535Z,26.88
2023-05-09T03:37:04.568Z,26.61
2023-05-09T03:38:04.609Z,25.81
2023-05-09T03:39:04.789Z,26.04
2023-05-09T03:40:04.761Z,25.00
2023-05-09T03:41:04.780Z,25.42
2023-05-09T03:42:04.843Z,25.96
2023-05-09T03:43:04.887Z,25.95
2023-05-09T03:44:04.952Z,26.77
2023-05-09T03:45:05.054Z,27.20
2023-05-09T03:46:05.048Z,27.29
2023-05-09T03:47:05.156Z,25.68
2023-05-09T03:48:05.173Z,25.19
2023-05-09T03:49:05.220Z,26.74
2023-05-09T03:50:05.276Z,26.62
2023-05-09T03:51:05.327Z,27.28
2023-05-09T03:52:05.382Z,26.38
2023-05-09T03:53:05.430Z,25.60
2023-05-09T03:54:05.494Z,25.37
2023-05-09T03:55:05.664Z,26.89
2023-05-09T03:56:05.591Z,27.48
2023-05-09T03:57:05.660Z,26.90
2023-05-09T03:58:05.700Z,26.87
2023-05-09T03:59:05.752Z,26.26
2023-05-09T04:00:05.843Z,26.65
2023-05-09T04:01:05.900Z,28.24
2023-05-09T04:02:06.020Z,28.08
2023-05-09T04:03:06.043Z,26.78
2023-05-09T04:04:06.098Z,27.57
2023-05-09T04:05:06.091Z,26.44
2023-05-09T04:06:06.156Z,26.78
2023-05-09T04:07:06.218Z,26.96
2023-05-09T04:08:06.273Z,28.19
2023-05-09T04:09:06.380Z,27.66
2023-05-09T04:10:06.449Z,28.54
2023-05-09T04:11:06.607Z,25.24
2023-05-09T04:12:06.506Z,27.13
2023-05-09T04:13:06.607Z,26.53
2023-05-09T04:14:07.464Z,26.43
2023-05-09T04:15:06.674Z,25.40
2023-05-09T04:16:06.746Z,25.66
2023-05-09T04:17:06.863Z,26.84
2023-05-09T04:18:06.915Z,25.02
2023-05-09T04:19:06.914Z,26.91
2023-05-09T04:20:06.959Z,26.78
2023-05-09T04:21:07.017Z,27.27
2023-05-09T04:22:07.086Z,26.88
2023-05-09T04:23:07.158Z,27.34
2023-05-09T04:24:07.199Z,25.57
2023-05-09T04:25:07.249Z,26.69
2023-05-09T04:26:07.315Z,26.55
2023-05-09T04:27:07.506Z,25.95
2023-05-09T04:28:07.431Z,27.52
2023-05-09T04:29:07.499Z,27.68
2023-05-09T04:30:07.553Z,27.20
2023-05-09T04:31:07.734Z,26.65
2023-05-09T04:32:07.745Z,27.57
2023-05-09T04:33:07.837Z,27.09
2023-05-09T04:34:07.794Z,25.63
2023-05-09T04:35:07.855Z,26.41
2023-05-09T04:36:07.913Z,27.10
2023-05-09T04:37:07.997Z,27.64
2023-05-09T04:38:08.057Z,27.44
2023-05-09T04:39:08.109Z,27.28
2023-05-09T04:40:08.184Z,27.27
2023-05-09T04:41:08.270Z,26.26
2023-05-09T04:42:08.298Z,25.43
2023-05-09T04:43:08.491Z,26.83
2023-05-09T04:44:08.427Z,26.27
2023-05-09T04:45:08.488Z,25.68
2023-05-09T04:46:08.579Z,25.00
2023-05-09T04:47:08.616Z,26.37
2023-05-09T04:48:08.744Z,26.96
2023-05-09T04:49:08.737Z,25.00
2023-05-09T04:50:08.818Z,26.74
2023-05-09T04:51:08.868Z,25.98
2023-05-09T04:52:08.931Z,28.09
2023-05-09T04:53:08.982Z,26.20
2023-05-09T04:54:09.046Z,25.00
2023-05-09T04:55:09.106Z,28.55
2023-05-09T04:56:09.165Z,26.87
2023-05-09T04:57:17.380Z,26.91
2023-05-09T04:58:09.238Z,27.31
2023-05-09T04:59:09.361Z,28.04
2023-05-09T05:00:09.261Z,28.61
2023-05-09T05:01:09.278Z,28.08
2023-05-09T05:02:09.289Z,25.46
2023-05-09T05:03:09.428Z,25.00
2023-05-09T05:04:09.341Z,25.79
2023-05-09T05:05:12.429Z,26.89
2023-05-09T05:06:09.319Z,27.21
2023-05-09T05:07:09.325Z,27.48
2023-05-09T05:08:09.331Z,27.37
2023-05-09T05:09:09.344Z,26.98
2023-05-09T05:10:09.345Z,25.77
2023-05-09T05:11:09.346Z,26.20
2023-05-09T05:12:09.874Z,25.00
2023-05-09T05:13:09.458Z,27.07
2023-05-09T05:14:09.388Z,26.62
2023-05-09T05:15:09.525Z,26.41
2023-05-09T05:16:09.420Z,26.74
2023-05-09T05:17:09.406Z,27.23
2023-05-09T05:18:09.468Z,25.56
2023-05-09T05:19:09.432Z,26.04
2023-05-09T05:20:09.443Z,29.17
2023-05-09T05:21:09.449Z,26.78
2023-05-09T05:22:09.445Z,28.39
2023-05-09T05:23:09.919Z,27.25
2023-05-09T05:24:09.470Z,27.13
2023-05-09T05:25:09.480Z,27.24
2023-05-09T05:26:09.486Z,26.17
2023-05-09T05:27:09.492Z,26.43
2023-05-09T05:28:09.498Z,26.21
2023-05-09T05:29:09.511Z,27.49
2023-05-09T05:30:09.564Z,26.14
2023-05-09T05:31:09.778Z,27.76
2023-05-09T05:32:09.927Z,26.69
2023-05-09T05:33:09.817Z,27.09
2023-05-09T05:34:09.775Z,29.40
2023-05-09T05:35:09.834Z,28.58
2023-05-09T05:36:09.889Z,27.55
2023-05-09T05:37:09.934Z,30.70
2023-05-09T05:38:10.427Z,31.32
2023-05-09T05:39:10.038Z,29.52
2023-05-09T05:40:10.104Z,32.06
2023-05-09T05:41:10.153Z,31.71
2023-05-09T05:42:10.206Z,31.84
2023-05-09T05:43:10.605Z,32.62
2023-05-09T05:44:10.332Z,31.40
2023-05-09T05:45:10.374Z,34.25
2023-05-09T05:46:10.445Z,35.57
2023-05-09T05:47:10.505Z,37.40
2023-05-09T05:48:11.000Z,37.82
2023-05-09T05:49:10.552Z,44.91
2023-05-09T05:50:10.589Z,52.74
2023-05-09T05:51:10.634Z,58.78
2023-05-09T05:52:10.666Z,59.52
2023-05-09T12:41:31.062Z,25.00
2023-05-09T12:42:17.867Z,25.00
2023-05-09T12:43:17.854Z,25.00
2023-05-09T12:44:17.837Z,25.00
2023-05-09T12:45:18.094Z,25.00
2023-05-09T12:46:17.836Z,25.00
2023-05-09T12:47:17.927Z,17.66
2023-05-09T12:48:17.740Z,25.00
2023-05-09T12:49:17.725Z,19.67
2023-05-09T12:50:18.078Z,25.00
2023-05-09T12:51:17.689Z,39.45
2023-05-09T12:52:17.675Z,26.06
2023-05-09T12:53:17.713Z,12.50
2023-05-09T12:54:17.749Z,32.05
2023-05-09T12:55:18.087Z,50.87
2023-05-09T12:56:17.828Z,25.00
2023-05-09T12:57:18.069Z,35.66
2023-05-09T12:58:17.887Z,28.83
2023-05-09T12:59:17.924Z,26.11
2023-05-09T13:00:18.103Z,34.90
2023-05-09T13:01:18.003Z,40.46
2023-05-09T13:02:18.101Z,54.00
2023-05-09T13:03:18.127Z,58.85
2023-05-09T13:04:18.123Z,53.02
2023-05-09T13:05:18.168Z,51.15
2023-05-09T13:06:18.225Z,44.24
2023-05-09T13:07:18.255Z,48.11
2023-05-09T13:08:18.286Z,25.00
2023-05-09T13:09:18.338Z,33.20
2023-05-09T13:10:18.364Z,46.61
2023-05-09T13:11:18.390Z,63.00
2023-05-09T13:12:18.593Z,75.99
2023-05-09T13:13:21.928Z,71.31
2023-05-09T13:14:18.458Z,71.50
2023-05-09T13:15:18.901Z,69.66
2023-05-09T13:16:21.607Z,63.01
2023-05-09T13:17:18.337Z,70.30
2023-05-09T13:18:21.515Z,73.26
2023-05-09T13:19:18.285Z,71.94
2023-05-09T13:20:18.742Z,78.19
2023-05-09T13:21:17.598Z,98.11
2023-05-09T13:22:18.241Z,125.89
2023-05-09T13:23:18.216Z,157.46
2023-05-09T13:24:18.202Z,152.82
2023-05-09T13:25:18.196Z,158.14
2023-05-09T13:26:18.204Z,178.79
2023-05-09T13:27:18.157Z,153.89
2023-05-09T13:28:18.131Z,178.38
2023-05-09T13:29:18.209Z,183.86
2023-05-09T13:30:18.448Z,208.41
2023-05-09T13:31:18.149Z,224.70
2023-05-09T13:32:18.026Z,262.03
2023-05-09T13:33:25.892Z,251.98
2023-05-09T13:34:17.970Z,252.16
2023-05-09T13:35:17.952Z,238.92
2023-05-09T13:36:17.926Z,253.57
2023-05-09T13:37:17.897Z,270.98
2023-05-09T13:38:18.103Z,298.94
2023-05-09T13:39:17.894Z,305.63
2023-05-09T13:40:18.141Z,277.36
2023-05-09T13:41:18.108Z,250.00
2023-05-09T13:42:19.166Z,248.29
2023-05-09T13:43:17.847Z,242.55
2023-05-09T13:44:17.903Z,242.67
2023-05-09T13:45:18.236Z,240.76
2023-05-09T13:46:18.046Z,244.91
2023-05-09T13:47:18.064Z,248.59
2023-05-09T13:48:18.112Z,250.00
2023-05-09T13:49:18.088Z,249.04
2023-05-09T13:50:18.297Z,248.88
2023-05-09T13:51:18.181Z,249.22
2023-05-09T13:52:18.226Z,247.14
2023-05-09T13:53:18.268Z,246.98
2023-05-09T13:54:18.292Z,249.22
2023-05-09T13:55:18.350Z,248.69
2023-05-09T13:56:18.393Z,248.87
2023-05-09T13:57:18.416Z,249.60
2023-05-09T13:58:18.431Z,246.93
2023-05-09T13:59:18.460Z,248.78
2023-05-09T14:00:18.842Z,246.29
2023-05-09T14:01:18.742Z,246.99
2023-05-09T14:02:18.602Z,248.55
2023-05-09T14:03:18.673Z,248.60
2023-05-09T14:04:18.697Z,249.27
2023-05-09T14:05:18.949Z,249.24
2023-05-09T14:06:18.806Z,247.14
2023-05-09T14:07:18.852Z,248.83
2023-05-09T14:08:18.905Z,249.40
2023-05-09T14:09:18.938Z,248.48
2023-05-09T14:10:19.240Z,247.42
2023-05-09T14:11:19.133Z,247.19
2023-05-09T14:12:19.080Z,248.70
2023-05-09T14:13:19.179Z,248.39
2023-05-09T14:14:19.176Z,247.94
2023-05-09T14:15:19.232Z,249.43
2023-05-09T14:16:19.344Z,248.84
2023-05-09T14:17:19.424Z,248.73
2023-05-09T14:18:21.057Z,249.24
2023-05-09T14:19:19.321Z,247.72
2023-05-09T14:20:19.319Z,246.31
2023-05-09T14:21:19.282Z,244.84
2023-05-09T14:22:19.262Z,245.29
2023-05-09T14:23:19.244Z,244.99
2023-05-09T14:24:19.221Z,245.17
2023-05-09T14:25:19.205Z,245.01
2023-05-09T14:26:19.193Z,244.84
2023-05-09T14:27:19.190Z,245.67
2023-05-09T14:28:19.161Z,244.02
2023-05-09T14:29:19.176Z,247.54
2023-05-09T14:30:19.163Z,247.72
2023-05-09T14:31:19.141Z,245.30
2023-05-09T14:32:19.081Z,248.80
2023-05-09T14:33:19.188Z,246.66
2023-05-09T14:34:19.038Z,246.97
2023-05-09T14:35:19.071Z,247.23
2023-05-09T14:36:19.128Z,247.82
2023-05-09T14:37:18.990Z,247.99
2023-05-09T14:38:18.956Z,247.43
2023-05-09T14:39:19.117Z,248.30
2023-05-09T14:40:18.936Z,248.00
2023-05-09T14:41:21.366Z,248.57
2023-05-09T14:42:18.872Z,247.16
2023-05-09T14:43:18.847Z,244.82
2023-05-09T14:44:18.826Z,246.37
2023-05-09T14:45:18.785Z,245.77
2023-05-09T14:46:18.758Z,246.68
2023-05-09T14:47:18.735Z,245.02
2023-05-09T14:48:18.796Z,246.40
2023-05-09T14:49:18.816Z,244.92
2023-05-09T14:50:18.653Z,245.45
2023-05-09T14:51:18.640Z,245.90
2023-05-09T14:52:18.615Z,245.09
2023-05-09T14:53:18.598Z,246.90
2023-05-09T14:54:18.653Z,245.94
2023-05-09T14:55:18.569Z,243.89
2023-05-09T14:56:18.541Z,245.42
2023-05-09T14:57:18.534Z,244.74
2023-05-09T14:58:18.512Z,245.74
2023-05-09T14:59:18.512Z,244.44
2023-05-09T15:00:21.831Z,245.76
2023-05-09T15:01:18.695Z,245.93
2023-05-09T15:02:18.435Z,246.13
2023-05-09T15:03:18.403Z,246.58
2023-05-09T15:04:18.400Z,246.80
2023-05-09T15:05:18.499Z,245.59
2023-05-09T15:06:18.364Z,247.91
2023-05-09T15:07:18.327Z,246.99
2023-05-09T15:08:18.308Z,248.04
2023-05-09T15:09:18.295Z,245.67
2023-05-09T15:10:18.822Z,247.37
2023-05-09T15:11:18.239Z,246.34
2023-05-09T15:12:18.225Z,244.07
2023-05-09T15:13:18.300Z,245.64
2023-05-09T15:14:18.261Z,245.53
2023-05-09T15:15:18.284Z,245.39
2023-05-09T15:16:18.333Z,244.73
2023-05-09T15:17:18.329Z,242.10
2023-05-09T15:18:18.370Z,242.65
2023-05-09T15:19:18.370Z,242.18
2023-05-09T15:20:18.651Z,241.76
2023-05-09T15:21:18.549Z,241.88
2023-05-09T15:22:18.433Z,240.63
2023-05-09T15:23:18.524Z,242.02
2023-05-09T15:24:18.472Z,238.48
2023-05-09T15:25:18.489Z,237.93
2023-05-09T15:26:18.486Z,237.12
2023-05-09T15:27:18.490Z,235.22
2023-05-09T15:28:18.513Z,233.39
2023-05-09T15:29:18.529Z,233.78
2023-05-09T15:30:18.674Z,229.45
2023-05-09T15:31:18.573Z,229.20
2023-05-09T15:32:18.547Z,226.80
2023-05-09T15:33:18.542Z,226.51
2023-05-09T15:34:18.546Z,224.66
2023-05-09T15:35:18.566Z,224.64
2023-05-09T15:36:18.536Z,224.45
2023-05-09T15:37:18.621Z,224.48
2023-05-09T15:38:18.488Z,225.61
2023-05-09T15:39:18.501Z,226.20
2023-05-09T15:40:18.663Z,228.58
2023-05-09T15:41:18.512Z,229.53
2023-05-09T15:42:18.492Z,230.19
2023-05-09T15:43:18.474Z,230.21
2023-05-09T15:44:18.493Z,232.63
2023-05-09T15:45:18.456Z,232.16
2023-05-09T15:46:18.508Z,230.82
2023-05-09T15:47:18.457Z,232.78
2023-05-09T15:48:18.440Z,233.35
2023-05-09T15:49:18.444Z,235.43
2023-05-09T15:50:18.660Z,232.49
2023-05-09T15:51:18.450Z,235.49
2023-05-09T15:52:18.444Z,234.14
2023-05-09T15:53:18.572Z,233.74
2023-05-09T15:54:18.451Z,232.80
2023-05-09T15:55:18.524Z,232.54
2023-05-09T15:56:18.442Z,233.28
2023-05-09T15:57:18.441Z,232.50
2023-05-09T15:58:18.440Z,231.33
2023-05-09T15:59:18.434Z,232.71
2023-05-09T16:00:18.443Z,233.22
2023-05-09T16:01:18.495Z,231.46
2023-05-09T16:02:18.459Z,232.40
2023-05-09T16:03:18.692Z,230.09
2023-05-09T16:04:18.392Z,230.98
2023-05-09T16:05:18.384Z,230.51
2023-05-09T16:06:18.386Z,228.53
2023-05-09T16:07:18.538Z,227.76
2023-05-09T16:08:18.366Z,228.13
2023-05-09T16:09:18.453Z,227.07
2023-05-09T16:10:18.365Z,225.70
2023-05-09T16:11:18.280Z,222.25
2023-05-09T16:12:18.348Z,210.29
2023-05-09T16:13:18.358Z,195.98
2023-05-09T16:14:18.701Z,193.96
2023-05-09T16:15:18.370Z,199.34
2023-05-09T16:16:18.388Z,190.71
2023-05-09T16:17:18.335Z,186.63
2023-05-09T16:18:18.314Z,188.40
2023-05-09T16:19:18.311Z,195.47
2023-05-09T16:20:18.463Z,198.40
2023-05-09T16:21:18.339Z,205.74
2023-05-09T16:22:18.361Z,208.69
2023-05-09T16:23:18.395Z,212.28
2023-05-09T16:24:17.492Z,216.68
2023-05-09T16:25:18.569Z,218.50
2023-05-09T16:26:18.429Z,219.04
2023-05-09T16:27:18.404Z,221.58
2023-05-09T16:28:18.389Z,220.39
2023-05-09T16:29:18.371Z,221.85
2023-05-09T16:30:18.494Z,220.90
2023-05-09T16:31:18.391Z,223.50
2023-05-09T16:32:18.340Z,224.93
2023-05-09T16:33:18.331Z,224.29
2023-05-09T16:34:18.328Z,224.55
2023-05-09T16:35:18.329Z,225.45
2023-05-09T16:36:18.344Z,228.24
2023-05-09T16:37:18.333Z,228.28
2023-05-09T16:38:18.338Z,225.71
2023-05-09T16:39:18.340Z,229.19
2023-05-09T16:40:18.473Z,227.96
2023-05-09T16:41:18.470Z,227.09
2023-05-09T16:42:18.344Z,227.92
2023-05-09T16:43:18.335Z,225.09
2023-05-09T16:44:18.334Z,221.22
2023-05-09T16:45:18.334Z,217.80
2023-05-09T16:46:18.322Z,216.93
2023-05-09T16:47:18.326Z,216.28
2023-05-09T16:48:18.306Z,216.16
2023-05-09T16:49:18.275Z,217.25
2023-05-09T16:50:18.355Z,216.52
2023-05-09T16:51:18.236Z,219.49
2023-05-09T16:52:18.232Z,221.29
2023-05-09T16:53:18.213Z,222.73
2023-05-09T16:54:18.205Z,224.14
2023-05-09T16:55:18.198Z,226.78
2023-05-09T16:56:18.197Z,226.51
2023-05-09T16:57:18.237Z,228.58
2023-05-09T16:58:18.214Z,229.46
2023-05-09T16:59:18.229Z,228.78
2023-05-09T17:00:18.233Z,230.40
2023-05-09T17:01:18.332Z,233.28
2023-05-09T17:02:18.257Z,232.62
2023-05-09T17:03:18.283Z,233.46
2023-05-09T17:04:18.280Z,235.64
2023-05-09T17:05:18.312Z,235.65
2023-05-09T17:06:18.309Z,234.56
2023-05-09T17:07:18.321Z,235.40
2023-05-09T17:08:18.341Z,235.45
2023-05-09T17:09:18.360Z,236.40
2023-05-09T17:10:18.590Z,237.92
2023-05-09T17:11:18.721Z,238.69
2023-05-09T17:12:18.607Z,237.89
2023-05-09T17:13:18.581Z,238.82
2023-05-09T17:14:18.469Z,238.57
2023-05-09T17:15:18.483Z,237.50
2023-05-09T17:16:18.627Z,242.50
2023-05-09T17:17:18.528Z,239.68
2023-05-09T17:18:29.190Z,243.04
2023-05-09T17:19:18.546Z,243.14
2023-05-09T17:20:18.713Z,243.54
2023-05-09T17:21:18.508Z,243.53
2023-05-09T17:22:18.487Z,243.91
2023-05-09T17:23:18.473Z,242.72
2023-05-09T17:24:18.452Z,244.67
2023-05-09T17:25:18.434Z,244.83
2023-05-09T17:26:18.432Z,246.71
2023-05-09T17:27:18.417Z,243.98
2023-05-09T17:28:18.410Z,246.15
2023-05-09T17:29:18.528Z,244.16
2023-05-09T17:30:20.602Z,244.88
2023-05-09T17:31:18.410Z,245.11
2023-05-09T17:32:18.359Z,245.31
2023-05-09T17:33:18.344Z,246.34
2023-05-09T17:34:18.319Z,246.96
2023-05-09T17:35:18.297Z,248.62
2023-05-09T17:36:18.281Z,249.30
2023-05-09T17:37:18.265Z,248.30
2023-05-09T17:38:18.244Z,248.55
2023-05-09T17:39:18.225Z,248.30
2023-05-09T17:40:18.371Z,245.57
2023-05-09T17:41:18.198Z,247.93
2023-05-09T17:42:18.189Z,247.44
2023-05-09T17:43:18.173Z,249.10
2023-05-09T17:44:18.146Z,248.18
2023-05-09T17:45:18.309Z,248.89
2023-05-09T17:46:18.246Z,248.25
2023-05-09T17:47:18.248Z,247.78
2023-05-09T17:48:18.289Z,249.02
2023-05-09T17:49:18.385Z,248.89
2023-05-09T17:50:18.765Z,248.25
2023-05-09T17:51:18.416Z,247.65
2023-05-09T17:52:18.442Z,250.00
2023-05-09T17:53:18.496Z,247.70
2023-05-09T17:54:18.508Z,247.11
2023-05-09T17:55:18.551Z,248.01
2023-05-09T17:56:18.591Z,250.00
2023-05-09T17:57:18.630Z,247.16
2023-05-09T17:58:18.676Z,248.91
2023-05-09T17:59:18.712Z,248.77
2023-05-09T18:00:18.747Z,248.24
2023-05-09T18:01:19.055Z,247.94
2023-05-09T18:02:18.864Z,247.81
2023-05-09T18:03:18.926Z,247.89
2023-05-09T18:04:18.942Z,249.49
2023-05-09T18:05:19.016Z,247.55
2023-05-09T18:06:19.041Z,250.00
2023-05-09T18:07:19.094Z,247.61
2023-05-09T18:08:19.154Z,246.71
2023-05-09T18:09:19.201Z,247.53
2023-05-09T18:10:19.247Z,247.24
2023-05-09T18:11:19.302Z,248.12
2023-05-09T18:12:19.348Z,246.41
2023-05-09T18:13:19.453Z,247.15
2023-05-09T18:14:19.435Z,248.83
2023-05-09T18:15:19.489Z,249.02
2023-05-09T18:16:19.558Z,248.73
2023-05-09T18:17:19.601Z,248.07
2023-05-09T18:18:19.791Z,249.97
2023-05-09T18:19:19.665Z,249.20
2023-05-09T18:20:19.720Z,246.34
2023-05-09T18:21:19.760Z,248.01
2023-05-09T18:22:19.810Z,248.79
2023-05-09T18:23:19.858Z,248.15
2023-05-09T18:24:19.909Z,246.79
2023-05-09T18:25:19.957Z,249.64
2023-05-09T18:26:20.008Z,247.87
2023-05-09T18:27:20.063Z,247.89
2023-05-09T18:28:20.112Z,248.45
2023-05-09T18:29:20.186Z,247.96
2023-05-09T18:30:20.227Z,247.53
2023-05-09T18:31:20.381Z,248.15
2023-05-09T18:32:20.334Z,248.49
2023-05-09T18:33:20.396Z,246.61
2023-05-09T18:34:20.438Z,247.98
2023-05-09T18:35:20.497Z,249.81
2023-05-09T18:36:20.550Z,248.63
2023-05-09T18:37:20.587Z,248.55
2023-05-09T18:38:20.643Z,245.65
2023-05-09T18:39:20.703Z,248.65
2023-05-09T18:40:20.726Z,248.34
2023-05-09T18:41:20.778Z,248.35
2023-05-09T18:42:20.857Z,246.30
2023-05-09T18:43:20.893Z,247.81
2023-05-09T18:44:20.910Z,245.67
2023-05-09T18:45:20.962Z,247.72
2023-05-09T18:46:21.167Z,247.89
2023-05-09T18:47:21.088Z,246.35
2023-05-09T18:48:21.164Z,247.18
2023-05-09T18:49:21.343Z,248.68
2023-05-09T18:50:21.258Z,247.76
2023-05-09T18:51:21.283Z,247.58
2023-05-09T18:52:21.347Z,247.88
2023-05-09T18:53:21.365Z,247.33
2023-05-09T18:54:21.393Z,246.00
2023-05-09T18:55:21.441Z,245.83
2023-05-09T18:56:21.497Z,247.76
2023-05-09T18:57:21.559Z,248.12
2023-05-09T18:58:21.612Z,249.96
2023-05-09T18:59:21.623Z,245.20
2023-05-09T19:00:21.680Z,246.48
2023-05-09T19:01:21.777Z,247.81
2023-05-09T19:02:21.922Z,246.38
2023-05-09T19:03:21.837Z,249.37
2023-05-09T19:04:21.999Z,246.02
2023-05-09T19:05:22.080Z,248.03
2023-05-09T19:06:22.026Z,245.62
2023-05-09T19:07:22.076Z,246.28
2023-05-09T19:08:22.119Z,245.93
2023-05-09T19:09:22.188Z,246.03
2023-05-09T19:10:22.246Z,246.73
2023-05-09T19:11:22.267Z,246.40
2023-05-09T19:12:22.302Z,246.03
2023-05-09T19:13:22.351Z,244.32
2023-05-09T19:14:22.286Z,247.46
2023-05-09T19:15:22.348Z,246.13
2023-05-09T19:16:22.449Z,245.36
2023-05-09T19:17:22.438Z,246.78
2023-05-09T19:18:22.456Z,246.96
2023-05-09T19:19:22.449Z,245.44
2023-05-09T19:20:22.476Z,247.05
2023-05-09T19:21:22.620Z,246.36
2023-05-09T19:22:22.516Z,245.97
2023-05-09T19:23:22.541Z,245.10
2023-05-09T19:24:22.596Z,247.19
2023-05-09T19:25:22.651Z,246.49
2023-05-09T19:26:22.676Z,247.35
2023-05-09T19:27:22.745Z,247.26
2023-05-09T19:28:22.784Z,246.77
2023-05-09T19:29:22.778Z,248.28